Time;durP1;ratioP1;P1;durP2;ratioP2;P2;SDS_P1;SDS_P2;PMS_P1;PMS_P2;Temp;Humidity;BMP_temperature;BMP_pressure;BME280_temperature;BME280_humidity;BME280_pressure;Samples;Min_cycle;Max_cycle;Signal;HPM_P1;HPM_P2
2021/11/04 00:01:06;;;;;;;19.67;17.67;;;8.20;99.90;;;;;;5080982;28;20425;-72
2021/11/04 01:38:48;;;;;;;18.33;13.38;;;5.30;99.90;;;;;;5120083;27;20567;-74
2021/11/04 01:41:15;;;;;;;17.92;13.35;;;5.30;99.90;;;;;;5115933;28;20237;-73
2021/11/04 01:43:41;;;;;;;17.42;13.48;;;5.30;99.90;;;;;;5119710;28;20177;-73
2021/11/04 01:46:07;;;;;;;17.95;13.52;;;5.30;99.90;;;;;;5114681;28;20912;-73
2021/11/04 01:48:32;;;;;;;18.88;13.65;;;5.30;99.90;;;;;;5114842;28;20180;-73
2021/11/04 01:50:58;;;;;;;18.33;13.27;;;5.30;99.90;;;;;;5116957;28;20184;-74
2021/11/04 01:53:24;;;;;;;16.83;12.70;;;5.30;99.90;;;;;;5117393;28;20185;-74
2021/11/04 01:55:50;;;;;;;17.73;12.45;;;5.20;99.90;;;;;;5117776;28;20246;-75
2021/11/04 01:58:16;;;;;;;17.27;13.65;;;5.30;99.90;;;;;;5105702;28;20715;-75
2021/11/04 02:00:42;;;;;;;16.90;13.15;;;5.20;99.90;;;;;;5116986;28;20182;-73
2021/11/04 02:03:18;;;;;;;17.23;12.95;;;5.20;99.90;;;;;;5099998;28;20181;-74
2021/11/04 02:05:55;;;;;;;17.83;13.27;;;5.20;99.90;;;;;;5113449;28;20188;-74
2021/11/04 02:08:30;;;;;;;17.38;13.27;;;5.20;99.90;;;;;;5118507;28;20185;-74
2021/11/04 02:11:06;;;;;;;16.05;12.50;;;5.20;99.90;;;;;;5119052;28;20191;-74
2021/11/04 02:13:57;;;;;;;16.77;13.38;;;5.20;99.90;;;;;;5116311;28;20193;-72
2021/11/04 02:16:24;;;;;;;16.70;12.25;;;5.10;99.90;;;;;;5090080;28;20239;-73
2021/11/04 02:18:51;;;;;;;19.58;13.30;;;5.10;99.90;;;;;;5113176;28;20180;-73
2021/11/04 02:21:38;;;;;;;17.48;13.25;;;5.10;99.90;;;;;;5120627;28;20657;-73
2021/11/04 02:24:06;;;;;;;18.00;13.38;;;5.10;99.90;;;;;;5096557;28;20254;-73
2021/11/04 02:26:34;;;;;;;17.42;13.57;;;5.10;99.90;;;;;;5097207;28;20642;-72
2021/11/04 02:29:01;;;;;;;18.00;14.23;;;5.10;99.90;;;;;;5101164;28;20806;-72
2021/11/04 02:31:28;;;;;;;18.73;14.10;;;5.10;99.90;;;;;;5116724;28;20201;-73
2021/11/04 02:33:54;;;;;;;18.63;13.88;;;5.10;99.90;;;;;;5119547;28;20191;-74
2021/11/04 02:36:23;;;;;;;19.95;14.10;;;5.10;99.90;;;;;;5118923;28;20651;-73
2021/11/04 02:38:49;;;;;;;18.35;14.15;;;5.00;99.90;;;;;;5112259;28;20189;-73
2021/11/04 02:41:15;;;;;;;18.13;13.93;;;5.00;99.90;;;;;;5111226;28;21261;-72
2021/11/04 02:43:41;;;;;;;19.20;13.43;;;5.00;99.90;;;;;;5112215;28;20272;-74
2021/11/04 02:46:07;;;;;;;18.45;13.40;;;5.00;99.90;;;;;;5115516;28;20181;-74
2021/11/04 02:48:33;;;;;;;19.17;13.43;;;4.90;99.90;;;;;;5112573;28;20636;-74
2021/11/04 02:50:59;;;;;;;18.33;13.98;;;4.90;99.90;;;;;;5083237;28;20758;-74
2021/11/04 02:53:29;;;;;;;18.27;13.57;;;4.90;99.90;;;;;;5098483;28;20264;-73
2021/11/04 02:55:55;;;;;;;17.38;13.15;;;4.90;99.90;;;;;;5078912;28;20730;-73
2021/11/04 02:58:22;;;;;;;22.13;19.40;;;4.90;99.90;;;;;;5100672;28;20419;-73
2021/11/04 03:00:51;;;;;;;17.60;15.35;;;5.20;99.90;;;;;;5097648;28;20823;-74
2021/11/04 03:03:18;;;;;;;18.50;15.07;;;5.10;99.90;;;;;;5100602;28;20178;-73
2021/11/04 03:05:44;;;;;;;18.75;14.73;;;5.10;99.90;;;;;;5080417;28;20181;-74
2021/11/04 03:08:10;;;;;;;18.63;14.00;;;5.00;99.90;;;;;;5082468;28;20182;-74
2021/11/04 03:10:36;;;;;;;18.63;13.98;;;5.00;99.90;;;;;;5080584;28;20258;-73
2021/11/04 03:13:03;;;;;;;18.33;14.23;;;4.90;99.90;;;;;;5102022;28;20311;-74
2021/11/04 03:15:33;;;;;;;19.55;14.02;;;4.90;99.90;;;;;;5102617;28;20292;-74
2021/11/04 03:17:59;;;;;;;17.95;13.95;;;4.90;99.90;;;;;;5068122;28;20209;-75
2021/11/04 03:20:25;;;;;;;21.48;14.70;;;4.90;99.90;;;;;;5097323;28;20193;-75
2021/11/04 03:22:52;;;;;;;22.83;15.80;;;4.90;99.90;;;;;;5101545;28;20189;-73
2021/11/04 03:25:19;;;;;;;19.63;14.70;;;4.90;99.90;;;;;;5082595;28;20188;-73
2021/11/04 03:27:49;;;;;;;21.08;15.55;;;4.90;99.90;;;;;;5078598;28;20654;-74
2021/11/04 03:30:18;;;;;;;21.25;15.82;;;4.90;99.90;;;;;;5105731;28;20196;-74
2021/11/04 03:32:44;;;;;;;22.17;16.05;;;4.90;99.90;;;;;;5101590;28;20186;-74
2021/11/04 03:35:12;;;;;;;19.45;14.80;;;5.00;99.90;;;;;;5078180;28;20198;-74
2021/11/04 03:37:43;;;;;;;20.35;15.25;;;5.00;99.90;;;;;;5093238;28;20278;-75
2021/11/04 03:40:10;;;;;;;20.63;15.38;;;5.10;99.90;;;;;;5081704;28;20184;-74
2021/11/04 03:42:36;;;;;;;19.60;14.52;;;5.10;99.90;;;;;;5099800;28;20189;-74
2021/11/04 03:45:03;;;;;;;21.77;16.48;;;5.10;99.90;;;;;;5099885;28;20237;-74
2021/11/04 03:47:31;;;;;;;21.83;15.57;;;5.10;99.90;;;;;;5101630;28;20185;-75
2021/11/04 03:49:58;;;;;;;20.20;15.15;;;5.10;99.90;;;;;;5096389;28;20585;-73
2021/11/04 03:52:27;;;;;;;19.15;14.73;;;5.20;99.90;;;;;;5095614;28;20218;-75
2021/11/04 03:54:53;;;;;;;18.33;14.52;;;5.20;99.90;;;;;;5097322;28;20212;-74
2021/11/04 03:57:22;;;;;;;20.98;14.88;;;5.20;99.90;;;;;;5099576;28;20198;-75
2021/11/04 03:59:47;;;;;;;19.55;14.57;;;5.10;99.90;;;;;;5079494;28;20213;-73
2021/11/04 04:02:13;;;;;;;19.08;14.30;;;5.10;99.90;;;;;;5083480;28;22196;-74
2021/11/04 04:04:39;;;;;;;17.45;14.00;;;5.10;99.90;;;;;;5094822;28;20618;-74
2021/11/04 04:07:05;;;;;;;20.92;14.50;;;5.10;99.90;;;;;;5077853;28;20197;-75
2021/11/04 04:09:31;;;;;;;21.30;14.15;;;5.10;99.90;;;;;;5099765;28;20189;-75
2021/11/04 04:11:56;;;;;;;21.40;14.77;;;5.00;99.90;;;;;;5101246;28;20208;-74
2021/11/04 04:14:22;;;;;;;22.05;15.20;;;5.10;99.90;;;;;;5081986;28;20196;-74
2021/11/04 04:16:48;;;;;;;20.80;15.20;;;5.00;99.90;;;;;;5096798;28;20211;-73
2021/11/04 04:19:13;;;;;;;19.63;14.73;;;5.00;99.90;;;;;;5095958;28;20216;-73
2021/11/04 04:21:39;;;;;;;21.10;14.20;;;5.00;99.90;;;;;;5100625;28;20533;-74
2021/11/04 04:24:05;;;;;;;22.63;15.00;;;5.00;99.90;;;;;;5075315;28;20192;-74
2021/11/04 04:26:34;;;;;;;20.35;14.00;;;4.90;99.90;;;;;;5081686;28;20181;-74
2021/11/04 04:29:00;;;;;;;19.25;14.90;;;4.90;99.90;;;;;;5105760;28;20545;-74
2021/11/04 04:31:26;;;;;;;21.75;15.30;;;4.90;99.90;;;;;;5100693;28;20185;-73
2021/11/04 04:33:51;;;;;;;23.35;15.50;;;4.90;99.90;;;;;;5100966;28;20216;-75
2021/11/04 04:36:17;;;;;;;23.15;16.25;;;4.90;99.90;;;;;;5080038;28;20177;-75
2021/11/04 04:38:43;;;;;;;72.78;17.35;;;4.90;99.90;;;;;;5085377;28;20260;-75
2021/11/04 04:41:09;;;;;;;39.67;15.10;;;5.00;99.90;;;;;;5081870;28;20213;-75
2021/11/04 04:43:34;;;;;;;24.08;15.30;;;5.00;99.90;;;;;;5076910;28;20189;-74
2021/11/04 04:46:00;;;;;;;30.42;15.23;;;5.10;99.90;;;;;;5078758;28;20297;-76
2021/11/04 04:48:25;;;;;;;26.83;16.23;;;5.20;99.90;;;;;;5079964;28;20182;-75
2021/11/04 04:50:51;;;;;;;27.27;15.93;;;5.20;99.90;;;;;;5080667;28;20186;-75
2021/11/04 04:53:17;;;;;;;22.75;15.45;;;5.20;99.90;;;;;;5081792;28;20186;-75
2021/11/04 04:55:42;;;;;;;21.23;15.32;;;5.30;99.90;;;;;;5078545;28;20240;-75
2021/11/04 04:58:08;;;;;;;25.55;15.77;;;5.30;99.90;;;;;;5079543;28;20701;-75
2021/11/04 05:00:35;;;;;;;23.45;15.32;;;5.30;99.90;;;;;;5077970;28;20183;-73
2021/11/04 05:03:00;;;;;;;22.90;15.38;;;5.40;99.90;;;;;;5080206;28;20186;-74
2021/11/04 05:05:26;;;;;;;23.42;15.07;;;5.40;99.90;;;;;;5079092;28;20173;-74
2021/11/04 05:07:52;;;;;;;24.75;15.48;;;5.50;99.90;;;;;;5080840;28;20205;-73
2021/11/04 05:10:18;;;;;;;22.25;14.98;;;5.50;99.90;;;;;;5079899;28;20193;-73
2021/11/04 05:12:44;;;;;;;23.45;14.65;;;5.50;99.90;;;;;;5080278;28;20186;-73
2021/11/04 05:15:10;;;;;;;21.05;14.90;;;5.50;99.90;;;;;;5076044;28;20491;-73
2021/11/04 05:17:36;;;;;;;22.77;15.02;;;5.50;99.90;;;;;;5076226;28;20245;-76
2021/11/04 05:20:07;;;;;;;24.52;13.25;;;5.60;99.90;;;;;;5077408;28;20724;-75
2021/11/04 05:22:33;;;;;;;19.98;13.60;;;5.60;99.90;;;;;;5061007;28;20188;-75
2021/11/04 05:24:59;;;;;;;29.48;14.55;;;5.60;99.90;;;;;;5083569;28;20785;-75
2021/11/04 05:27:25;;;;;;;22.48;13.73;;;5.60;99.90;;;;;;5081091;28;20198;-75
2021/11/04 05:29:51;;;;;;;20.23;13.63;;;5.60;99.90;;;;;;5081087;28;20190;-75
2021/11/04 05:32:18;;;;;;;22.85;13.50;;;5.70;99.90;;;;;;5077640;28;20196;-74
2021/11/04 05:34:44;;;;;;;24.73;14.05;;;5.70;99.90;;;;;;5078206;28;20596;-75
2021/11/04 05:37:10;;;;;;;23.30;13.65;;;5.70;99.90;;;;;;5084668;28;22066;-74
2021/11/04 05:39:39;;;;;;;23.17;14.05;;;5.70;99.90;;;;;;5097779;28;20182;-73
2021/11/04 05:42:06;;;;;;;23.27;14.65;;;5.70;99.90;;;;;;5101344;28;20231;-73
2021/11/04 05:44:32;;;;;;;25.77;14.43;;;5.70;99.90;;;;;;5082171;28;20189;-74
2021/11/04 05:46:58;;;;;;;22.23;14.57;;;5.70;99.90;;;;;;5098384;28;20673;-73
2021/11/04 05:49:24;;;;;;;24.75;14.98;;;5.80;99.90;;;;;;5102996;28;20196;-73
2021/11/04 05:51:50;;;;;;;29.60;14.95;;;5.80;99.90;;;;;;5105313;28;20276;-73
2021/11/04 05:54:15;;;;;;;22.83;14.95;;;5.80;99.90;;;;;;5098368;28;20660;-73
2021/11/04 05:56:41;;;;;;;21.80;14.13;;;5.80;99.90;;;;;;5098058;28;20377;-73
2021/11/04 05:59:07;;;;;;;25.17;14.75;;;5.90;99.90;;;;;;5098365;28;20181;-72
2021/11/04 06:01:32;;;;;;;21.60;14.90;;;5.90;99.90;;;;;;5098355;28;20314;-72
2021/11/04 06:03:58;;;;;;;25.17;14.88;;;5.90;99.90;;;;;;5098430;28;20188;-72
2021/11/04 06:06:24;;;;;;;24.83;14.82;;;5.90;99.90;;;;;;5100915;28;20180;-71
2021/11/04 06:08:49;;;;;;;21.80;14.40;;;6.00;99.90;;;;;;5100162;28;20233;-71
2021/11/04 06:11:15;;;;;;;22.67;14.25;;;6.00;99.90;;;;;;5101645;28;20656;-72
2021/11/04 06:13:41;;;;;;;22.85;13.35;;;6.00;99.90;;;;;;5077558;28;20201;-71
2021/11/04 06:16:12;;;;;;;22.70;13.75;;;6.00;99.90;;;;;;5098752;28;20217;-72
2021/11/04 06:18:38;;;;;;;24.70;13.60;;;6.10;99.90;;;;;;5099228;28;20697;-72
2021/11/04 06:21:04;;;;;;;23.02;14.65;;;6.10;99.90;;;;;;5103155;28;20211;-72
2021/11/04 06:23:30;;;;;;;27.80;17.27;;;6.10;99.90;;;;;;5103764;28;20634;-71
2021/11/04 06:25:55;;;;;;;21.60;13.18;;;6.20;99.90;;;;;;5102740;28;20238;-73
2021/11/04 06:28:21;;;;;;;22.80;12.05;;;6.10;99.90;;;;;;5104563;28;20197;-72
2021/11/04 06:30:46;;;;;;;22.52;10.10;;;6.10;99.90;;;;;;5101665;28;20189;-72
2021/11/04 06:33:12;;;;;;;13.07;8.38;;;6.20;99.90;;;;;;5102366;28;20280;-72
2021/11/04 06:35:38;;;;;;;13.43;8.70;;;6.20;99.90;;;;;;5096707;28;20543;-72
2021/11/04 06:38:03;;;;;;;15.95;8.00;;;6.30;99.90;;;;;;5100719;28;20249;-72
2021/11/04 06:40:29;;;;;;;13.10;7.50;;;6.30;99.90;;;;;;5103082;28;20208;-73
2021/11/04 06:42:55;;;;;;;16.48;7.53;;;6.30;99.90;;;;;;5100479;28;20177;-73
2021/11/04 06:45:20;;;;;;;19.83;11.53;;;6.40;99.90;;;;;;5101315;28;20413;-72
2021/11/04 06:47:50;;;;;;;17.85;9.95;;;6.80;99.90;;;;;;5103548;28;20415;-72
2021/11/04 06:50:21;;;;;;;17.10;7.50;;;7.20;99.90;;;;;;5084673;28;20209;-72
2021/11/04 06:53:00;;;;;;;15.23;6.13;;;7.00;99.90;;;;;;5103913;28;20189;-73
2021/11/04 06:55:27;;;;;;;14.45;7.45;;;6.90;99.90;;;;;;5096079;28;20268;-73
2021/11/04 06:58:03;;;;;;;12.57;5.32;;;6.90;99.90;;;;;;5099533;28;20205;-73
2021/11/04 07:00:31;;;;;;;15.98;5.78;;;6.80;99.90;;;;;;5103740;28;20268;-73
2021/11/04 07:03:11;;;;;;;16.77;4.60;;;6.80;99.90;;;;;;5100844;28;20193;-72
2021/11/04 07:05:36;;;;;;;14.07;4.97;;;6.80;99.90;;;;;;5099165;28;20181;-73
2021/11/04 07:08:04;;;;;;;11.82;5.47;;;6.80;99.90;;;;;;5093608;28;20202;-73
2021/11/04 07:10:30;;;;;;;15.30;5.55;;;6.80;99.90;;;;;;5099455;28;20696;-73
2021/11/04 07:12:56;;;;;;;11.43;4.88;;;6.90;99.90;;;;;;5103651;28;20185;-73
2021/11/04 07:15:22;;;;;;;11.30;4.35;;;6.90;99.90;;;;;;5080941;28;20722;-73
2021/11/04 07:17:48;;;;;;;15.68;6.00;;;6.90;99.90;;;;;;5094865;28;20205;-74
2021/11/04 07:20:16;;;;;;;8.90;4.75;;;7.00;99.90;;;;;;5081926;28;20943;-74
2021/11/04 07:22:53;;;;;;;8.05;4.88;;;7.00;99.90;;;;;;5078807;28;20211;-72
2021/11/04 07:25:24;;;;;;;15.15;5.18;;;7.10;99.90;;;;;;5086267;28;20181;-72
2021/11/04 07:28:11;;;;;;;10.40;4.43;;;7.10;99.90;;;;;;5106229;28;20238;-74
2021/11/04 07:30:39;;;;;;;17.20;5.43;;;7.20;99.90;;;;;;5103033;28;20729;-72
2021/11/04 07:33:05;;;;;;;16.00;4.88;;;7.30;99.90;;;;;;5097869;28;20186;-72
2021/11/04 07:35:36;;;;;;;18.55;5.75;;;7.30;99.90;;;;;;5098880;28;20273;-72
2021/11/04 07:38:05;;;;;;;21.05;7.55;;;7.40;99.90;;;;;;5104901;28;20227;-74
2021/11/04 07:40:31;;;;;;;16.02;4.57;;;7.40;99.90;;;;;;5097468;28;21053;-73
2021/11/04 07:42:58;;;;;;;15.52;4.28;;;7.50;99.90;;;;;;5095759;28;20192;-74
2021/11/04 07:45:25;;;;;;;12.48;3.63;;;7.50;99.90;;;;;;5096673;28;20186;-73
2021/11/04 07:47:51;;;;;;;8.13;3.25;;;7.50;99.90;;;;;;5082282;28;20190;-71
2021/11/04 07:50:23;;;;;;;9.30;3.35;;;7.60;99.90;;;;;;5085599;28;20259;-73
2021/11/04 07:52:49;;;;;;;13.50;3.20;;;7.60;99.90;;;;;;5080197;28;21740;-73
2021/11/04 07:55:15;;;;;;;14.13;3.58;;;7.60;99.90;;;;;;5097943;28;20235;-75
2021/11/04 07:57:42;;;;;;;13.93;2.97;;;7.70;99.90;;;;;;5077203;28;21078;-74
2021/11/04 08:00:13;;;;;;;14.10;4.03;;;7.70;99.90;;;;;;5100127;28;20185;-73
2021/11/04 08:02:41;;;;;;;12.75;4.05;;;7.80;99.90;;;;;;5097448;28;20508;-72
2021/11/04 08:05:09;;;;;;;14.00;3.45;;;8.30;99.90;;;;;;5104604;28;20178;-71
2021/11/04 08:07:36;;;;;;;12.50;2.78;;;8.30;99.90;;;;;;5100404;28;20676;-73
2021/11/04 08:10:05;;;;;;;11.45;2.05;;;8.40;99.90;;;;;;5095007;28;20194;-73
2021/11/04 08:12:32;;;;;;;7.50;2.10;;;8.40;99.90;;;;;;5075999;28;20192;-72
2021/11/04 08:14:59;;;;;;;8.20;1.70;;;8.50;99.90;;;;;;5083635;28;20185;-73
2021/11/04 08:17:25;;;;;;;7.90;1.80;;;8.60;99.90;;;;;;5084644;28;20293;-72
2021/11/04 08:19:51;;;;;;;5.40;1.58;;;8.60;99.90;;;;;;5081414;28;20202;-72
2021/11/04 08:22:16;;;;;;;9.07;2.00;;;8.80;99.90;;;;;;5095380;28;20409;-73
2021/11/04 08:24:43;;;;;;;4.45;1.70;;;9.80;99.90;;;;;;5084790;28;20177;-73
2021/11/04 08:27:08;;;;;;;;;;;10.00;99.90;;;;;;5102781;28;20082;-74
2021/11/04 08:29:34;;;;;;;;;;;10.10;99.90;;;;;;5107014;28;19996;-73
2021/11/04 08:31:59;;;;;;;;;;;10.20;99.90;;;;;;5100731;28;19914;-71
2021/11/04 08:34:25;;;;;;;;;;;10.20;99.90;;;;;;5106125;28;19911;-73
2021/11/04 08:36:50;;;;;;;;;;;10.30;99.90;;;;;;5102706;28;20475;-73
2021/11/04 08:39:16;;;;;;;;;;;11.10;99.90;;;;;;5098187;28;20317;-74
2021/11/04 08:41:42;;;;;;;8.45;1.50;;;12.20;99.90;;;;;;5083034;28;22020;-73
2021/11/04 08:44:08;;;;;;;13.35;1.90;;;12.70;99.90;;;;;;5099857;28;20567;-73
2021/11/04 08:46:34;;;;;;;8.35;1.70;;;12.90;99.90;;;;;;5102776;28;20185;-73
2021/11/04 08:49:00;;;;;;;14.00;1.60;;;12.70;99.90;;;;;;5100307;28;20182;-74
2021/11/04 08:51:26;;;;;;;10.77;1.67;;;12.60;99.90;;;;;;5086477;28;20271;-74
2021/11/04 08:53:51;;;;;;;11.07;1.75;;;12.40;99.90;;;;;;5081501;28;20185;-72
2021/11/04 08:56:17;;;;;;;9.60;1.70;;;12.20;99.90;;;;;;5101709;28;20193;-73
2021/11/04 08:58:42;;;;;;;10.60;1.40;;;12.00;99.90;;;;;;5101785;28;20307;-73
2021/11/04 09:01:09;;;;;;;15.02;5.05;;;11.90;99.90;;;;;;5099080;28;20235;-73
2021/11/04 09:03:34;;;;;;;10.88;1.85;;;12.20;99.90;;;;;;5096306;28;20939;-74
2021/11/04 09:06:02;;;;;;;5.22;1.15;;;13.20;99.90;;;;;;5093063;28;20392;-73
2021/11/04 09:08:27;;;;;;;4.95;1.13;;;15.60;99.90;;;;;;5091068;28;20481;-74
2021/11/04 09:10:53;;;;;;;3.43;1.00;;;17.90;99.90;;;;;;5098960;28;20493;-72
2021/11/04 09:13:20;;;;;;;4.15;1.17;;;19.90;98.80;;;;;;5072591;28;21120;-71
2021/11/04 09:15:46;;;;;;;5.47;1.10;;;21.60;93.20;;;;;;5081384;28;20405;-74
2021/11/04 09:18:12;;;;;;;4.10;1.20;;;23.00;83.30;;;;;;5076354;28;20477;-71
2021/11/04 09:20:37;;;;;;;3.70;0.90;;;24.20;70.80;;;;;;5103299;28;20469;-69
2021/11/04 09:23:03;;;;;;;3.60;0.80;;;25.20;61.90;;;;;;5101093;28;20428;-72
2021/11/04 09:25:29;;;;;;;3.05;0.80;;;25.90;56.50;;;;;;5098639;28;20412;-72
2021/11/04 09:27:58;;;;;;;3.35;0.90;;;26.30;54.40;;;;;;5085606;28;20423;-72
2021/11/04 09:30:25;;;;;;;3.83;0.70;;;26.60;51.70;;;;;;5100000;28;20406;-71
2021/11/04 09:32:51;;;;;;;2.30;1.00;;;26.40;50.60;;;;;;5095040;28;20402;-74
2021/11/04 09:35:17;;;;;;;4.25;1.42;;;26.00;50.60;;;;;;5079084;28;20940;-71
2021/11/04 09:37:43;;;;;;;2.20;0.60;;;25.30;51.40;;;;;;5093555;28;20418;-73
2021/11/04 09:40:10;;;;;;;3.83;1.02;;;24.90;53.40;;;;;;5104009;28;20423;-73
2021/11/04 09:42:36;;;;;;;2.70;0.60;;;25.00;52.30;;;;;;5095801;28;20410;-71
2021/11/04 09:45:03;;;;;;;1.60;0.60;;;25.40;52.50;;;;;;5101160;28;20409;-70
2021/11/04 09:47:30;;;;;;;1.77;0.50;;;26.10;50.10;;;;;;5097570;28;21030;-72
2021/11/04 09:49:58;;;;;;;4.32;1.02;;;26.70;48.50;;;;;;5104324;28;20400;-71
2021/11/04 09:52:25;;;;;;;1.97;1.00;;;27.20;46.60;;;;;;5090081;28;20413;-71
2021/11/04 09:54:53;;;;;;;2.40;0.75;;;27.70;46.30;;;;;;5084318;28;20473;-72
2021/11/04 09:57:20;;;;;;;2.80;1.00;;;28.10;45.20;;;;;;5096030;28;20414;-71
2021/11/04 09:59:45;;;;;;;2.42;0.85;;;28.40;44.70;;;;;;5083590;28;20400;-72
2021/11/04 10:02:19;;;;;;;4.75;1.13;;;28.60;43.70;;;;;;5105116;28;20442;-72
2021/11/04 10:04:46;;;;;;;4.00;1.10;;;28.60;43.10;;;;;;5083247;28;20412;-71
2021/11/04 10:07:14;;;;;;;2.70;0.63;;;28.10;44.90;;;;;;5095560;28;20413;-71
2021/11/04 10:09:40;;;;;;;4.00;1.30;;;27.50;46.30;;;;;;5104637;28;20565;-73
2021/11/04 10:12:14;;;;;;;6.07;1.10;;;26.80;47.30;;;;;;5104467;28;20402;-73
2021/11/04 10:14:41;;;;;;;3.83;1.98;;;26.00;49.50;;;;;;5102791;28;20498;-74
2021/11/04 10:17:28;;;;;;;3.50;1.00;;;25.40;51.30;;;;;;5100853;28;20739;-75
2021/11/04 10:19:55;;;;;;;5.45;1.00;;;25.10;51.90;;;;;;5103444;28;20520;-73
2021/11/04 10:22:27;;;;;;;6.10;1.10;;;24.90;52.30;;;;;;5065531;28;20890;-71
2021/11/04 10:24:54;;;;;;;4.72;1.13;;;24.70;52.00;;;;;;5099769;28;20884;-75
2021/11/04 10:27:35;;;;;;;2.95;1.02;;;24.10;52.60;;;;;;5096927;28;21254;-73
2021/11/04 10:30:05;;;;;;;3.83;0.65;;;23.30;54.70;;;;;;5099050;28;20738;-71
2021/11/04 10:32:33;;;;;;;4.38;0.70;;;22.60;57.20;;;;;;5090429;28;20797;-72
2021/11/04 10:35:07;;;;;;;2.30;0.50;;;21.80;59.70;;;;;;5080558;28;20399;-75
2021/11/04 10:37:42;;;;;;;3.83;0.80;;;21.20;60.80;;;;;;5102985;28;20420;-74
2021/11/04 10:40:09;;;;;;;6.20;2.78;;;20.60;64.60;;;;;;5086475;28;20768;-73
2021/11/04 10:42:55;;;;;;;3.13;0.70;;;20.50;66.40;;;;;;5100294;28;20408;-74
2021/11/04 10:45:26;;;;;;;3.05;0.60;;;20.90;64.60;;;;;;5095518;28;20474;-76
2021/11/04 10:48:15;;;;;;;2.65;0.60;;;21.50;62.70;;;;;;5098434;28;20417;-71
2021/11/04 10:50:42;;;;;;;3.33;0.70;;;22.20;60.30;;;;;;5107280;28;20414;-72
2021/11/04 10:53:08;;;;;;;2.83;0.63;;;22.80;58.50;;;;;;5096806;28;20410;-72
2021/11/04 10:55:34;;;;;;;2.33;0.90;;;23.20;56.80;;;;;;5105804;28;20411;-71
2021/11/04 10:58:06;;;;;;;3.93;1.00;;;23.60;55.20;;;;;;5097992;28;20786;-73
2021/11/04 11:00:36;;;;;;;4.07;1.00;;;24.20;54.00;;;;;;5075895;28;20447;-73
2021/11/04 11:03:01;;;;;;;3.00;0.73;;;24.80;52.70;;;;;;5087000;28;20408;-71
2021/11/04 11:05:32;;;;;;;3.23;0.80;;;25.30;50.20;;;;;;5085774;28;20442;-71
2021/11/04 11:07:58;;;;;;;3.58;1.17;;;25.70;49.30;;;;;;5100119;28;20894;-73
2021/11/04 11:10:24;;;;;;;3.72;1.20;;;26.00;48.30;;;;;;5099988;28;20494;-71
2021/11/04 11:12:50;;;;;;;4.43;0.80;;;26.20;47.90;;;;;;5095968;28;20411;-72
2021/11/04 11:15:17;;;;;;;3.70;0.95;;;26.40;48.00;;;;;;5083933;28;20414;-72
2021/11/04 11:17:45;;;;;;;1.77;0.70;;;26.60;46.60;;;;;;5106870;28;20420;-71
2021/11/04 11:20:13;;;;;;;2.05;0.90;;;26.70;46.40;;;;;;5102507;28;21228;-72
2021/11/04 11:22:45;;;;;;;2.85;1.00;;;26.80;46.00;;;;;;5101610;28;20404;-72
2021/11/04 11:25:11;;;;;;;1.80;0.55;;;27.00;46.00;;;;;;5098956;28;20413;-73
2021/11/04 11:27:37;;;;;;;3.63;0.80;;;27.10;44.10;;;;;;5094611;28;20901;-73
2021/11/04 11:30:09;;;;;;;3.72;0.88;;;27.20;44.40;;;;;;5102805;28;20573;-72
2021/11/04 11:32:35;;;;;;;1.63;0.60;;;27.50;43.50;;;;;;5098302;28;20406;-73
2021/11/04 11:35:10;;;;;;;2.20;0.80;;;27.70;43.30;;;;;;5084388;28;20457;-73
2021/11/04 11:37:43;;;;;;;3.00;0.80;;;27.70;44.10;;;;;;5084188;28;20503;-72
2021/11/04 11:40:15;;;;;;;2.38;0.70;;;27.80;43.60;;;;;;5088506;28;20912;-72
2021/11/04 11:43:01;;;;;;;1.83;0.82;;;28.00;43.20;;;;;;5078138;28;20410;-72
2021/11/04 11:45:32;;;;;;;5.05;2.67;;;28.20;43.10;;;;;;5098889;28;20404;-73
2021/11/04 11:48:14;;;;;;;4.13;2.00;;;28.40;42.00;;;;;;5107412;28;20847;-73
2021/11/04 11:50:42;;;;;;;4.22;1.38;;;28.50;41.90;;;;;;5104478;28;20404;-72
2021/11/04 11:53:33;;;;;;;2.20;0.93;;;28.60;42.40;;;;;;5106958;28;20383;-72
2021/11/04 11:56:00;;;;;;;2.65;0.80;;;28.60;41.70;;;;;;5106780;28;20412;-71
2021/11/04 11:58:32;;;;;;;1.67;0.80;;;28.40;41.60;;;;;;5105743;28;20412;-73
2021/11/04 12:01:02;;;;;;;2.78;1.00;;;28.20;42.40;;;;;;5076786;28;20396;-71
2021/11/04 12:03:31;;;;;;;2.05;0.70;;;28.00;42.10;;;;;;5086543;28;20443;-74
2021/11/04 12:05:59;;;;;;;3.17;1.08;;;27.90;43.10;;;;;;5076581;28;20453;-74
2021/11/04 12:08:37;;;;;;;1.95;0.80;;;28.00;43.10;;;;;;5101537;28;20404;-75
2021/11/04 12:11:09;;;;;;;2.27;0.70;;;28.20;41.80;;;;;;5087101;28;20416;-72
2021/11/04 12:13:41;;;;;;;2.05;0.80;;;27.90;41.70;;;;;;5105890;28;20470;-73
2021/11/04 12:16:20;;;;;;;3.47;0.87;;;27.30;42.10;;;;;;5103103;28;20404;-72
2021/11/04 12:18:58;;;;;;;2.03;0.90;;;26.60;43.30;;;;;;5087512;28;20530;-73
2021/11/04 12:21:34;;;;;;;4.15;0.90;;;26.20;44.10;;;;;;5084294;28;20412;-74
2021/11/04 12:24:05;;;;;;;5.72;1.00;;;25.80;45.50;;;;;;5087153;28;20431;-76
2021/11/04 12:26:39;;;;;;;3.53;0.90;;;25.20;47.20;;;;;;5103708;28;20404;-73
2021/11/04 12:29:10;;;;;;;4.05;1.20;;;24.70;47.70;;;;;;5106622;28;21024;-74
2021/11/04 12:31:39;;;;;;;3.40;1.10;;;24.10;49.70;;;;;;5100601;28;21193;-74
2021/11/04 12:34:05;;;;;;;2.75;1.00;;;23.60;50.90;;;;;;5100180;28;20911;-73
2021/11/04 12:36:33;;;;;;;3.13;1.10;;;23.50;51.90;;;;;;5105866;28;20408;-74
2021/11/04 12:39:00;;;;;;;3.45;0.90;;;23.70;52.00;;;;;;5088011;28;20469;-74
2021/11/04 12:41:27;;;;;;;3.47;0.77;;;24.10;51.10;;;;;;5105115;28;20885;-73
2021/11/04 12:44:02;;;;;;;2.58;0.90;;;24.50;49.90;;;;;;5105087;28;20400;-73
2021/11/04 12:46:30;;;;;;;5.07;1.23;;;24.50;49.00;;;;;;5099928;28;20397;-74
2021/11/04 12:49:04;;;;;;;2.67;0.90;;;24.40;49.00;;;;;;5088035;28;21335;-76
2021/11/04 12:51:49;;;;;;;4.57;1.10;;;24.20;50.60;;;;;;5087369;28;20491;-72
2021/11/04 12:54:16;;;;;;;4.97;0.87;;;23.90;50.60;;;;;;5104054;28;20766;-74
2021/11/04 12:56:43;;;;;;;4.03;0.87;;;23.70;50.50;;;;;;5094502;28;20405;-76
2021/11/04 12:59:11;;;;;;;2.70;0.90;;;23.60;50.50;;;;;;5096216;28;20503;-73
2021/11/04 13:01:58;;;;;;;3.20;1.00;;;23.70;50.30;;;;;;5075993;28;20406;-73
2021/11/04 13:04:29;;;;;;;1.90;0.93;;;23.70;51.60;;;;;;5104901;28;20408;-73
2021/11/04 13:06:56;;;;;;;4.07;1.10;;;23.60;50.40;;;;;;5087595;28;20998;-74
2021/11/04 13:09:23;;;;;;;2.63;0.73;;;23.30;51.70;;;;;;5067130;28;20925;-74
2021/11/04 13:12:24;;;;;;;2.45;0.80;;;22.90;52.80;;;;;;5099661;28;20392;-74
2021/11/04 13:14:50;;;;;;;3.42;0.82;;;22.60;53.00;;;;;;5001923;28;20499;-74
2021/11/04 13:17:15;;;;;;;3.50;0.80;;;22.40;53.30;;;;;;5079848;28;20580;-73
2021/11/04 13:20:03;;;;;;;3.03;0.85;;;22.20;54.30;;;;;;5098462;28;20430;-72
2021/11/04 13:22:29;;;;;;;3.60;0.93;;;21.90;55.00;;;;;;5101045;28;20942;-73
2021/11/04 13:25:00;;;;;;;2.25;0.90;;;21.70;58.50;;;;;;5102422;28;20484;-73
2021/11/04 13:27:26;;;;;;;3.73;1.10;;;21.40;59.50;;;;;;5100523;28;20412;-72
2021/11/04 13:29:55;;;;;;;1.65;0.88;;;21.10;61.60;;;;;;5102683;28;20910;-73
2021/11/04 13:32:23;;;;;;;2.28;0.80;;;20.80;65.00;;;;;;5077579;28;20420;-73
2021/11/04 13:34:49;;;;;;;2.80;1.00;;;20.50;67.10;;;;;;5083478;28;20410;-74
2021/11/04 13:37:26;;;;;;;2.50;1.00;;;20.30;66.50;;;;;;5093770;28;20443;-73
2021/11/04 13:39:54;;;;;;;5.07;1.50;;;20.10;69.20;;;;;;5085361;28;20396;-73
2021/11/04 13:42:34;;;;;;;4.20;1.30;;;20.00;71.70;;;;;;5073798;28;20408;-71
2021/11/04 13:45:21;;;;;;;3.27;1.00;;;19.90;72.30;;;;;;5075039;28;20413;-70
2021/11/04 13:47:47;;;;;;;7.05;1.27;;;19.80;70.50;;;;;;5097874;28;20413;-72
2021/11/04 13:50:16;;;;;;;3.00;1.02;;;19.60;72.20;;;;;;5092006;28;20544;-73
2021/11/04 13:52:43;;;;;;;5.00;0.90;;;19.50;73.80;;;;;;5097432;28;20416;-72
2021/11/04 13:55:29;;;;;;;2.03;0.90;;;19.30;75.00;;;;;;5102707;28;20411;-71
2021/11/04 13:57:56;;;;;;;3.05;0.90;;;19.10;76.60;;;;;;5095728;28;20501;-73
2021/11/04 14:00:24;;;;;;;3.40;1.20;;;18.80;76.60;;;;;;5100249;28;20915;-72
2021/11/04 14:02:58;;;;;;;2.67;0.90;;;18.60;78.50;;;;;;5098272;28;21028;-71
2021/11/04 14:05:45;;;;;;;1.98;0.93;;;18.40;80.50;;;;;;5077624;28;20423;-71
2021/11/04 14:08:11;;;;;;;3.72;1.00;;;18.30;81.00;;;;;;5099523;28;20843;-73
2021/11/04 14:10:37;;;;;;;2.92;1.08;;;18.10;82.20;;;;;;5098123;28;20404;-72
2021/11/04 14:13:02;;;;;;;3.83;1.15;;;18.00;80.70;;;;;;5099625;28;20496;-72
2021/11/04 14:15:39;;;;;;;3.03;1.40;;;17.90;81.90;;;;;;5094954;28;20419;-74
2021/11/04 14:18:18;;;;;;;2.90;1.20;;;17.80;82.50;;;;;;5098434;28;21088;-73
2021/11/04 14:20:45;;;;;;;4.07;1.40;;;17.80;82.80;;;;;;5074813;28;20511;-72
2021/11/04 14:23:13;;;;;;;6.72;3.15;;;17.70;81.50;;;;;;5100126;28;20408;-73
2021/11/04 14:25:39;;;;;;;5.03;2.10;;;17.60;82.20;;;;;;5099991;28;20422;-72
2021/11/04 14:28:07;;;;;;;5.20;2.20;;;17.40;83.10;;;;;;5101485;28;20433;-74